Welcome to this demonstration website - Welkom op de demo website - Bienvenue sur ce site de démonstration - Willkommen auf dieser Demonstration Website


my webcam  My webcam


thunder radar more information blitzortung!


rain radar more information rain snow radar


visit our other weather sites:

Template documentation
and downloads

And another site



nearby metar reports

   
EBAW - Antwerp
updated: 25-09-2017 07:50
fog, partly cloudy  
fog, partly cloudy  
   wind: east 3.7 km/h
wind: east 3.7 km/h
temperature: 9°C
dew point: 8°C
humidity: 94%
barometer: 1021 hPa
clouds: Partly Cloudy
visibility: 1 km
cloud details: partly cloudy m
EBAW 250550Z 08002KT 0700 R11/0350D R29/0900U FG NSC 09/08 Q1021 TEMPO 0400 FG BKN001
EBLG - Liège
updated: 25-09-2017 07:50
partly cloudy  
partly cloudy  
   wind: se 9.3 km/h<br />Gust to 9.3 km/h
wind: se 9.3 km/h
Gust to 9.3 km/h
temperature: 11°C
dew point: 6°C
humidity: 72%
barometer: 1020 hPa
clouds: Partly Cloudy
visibility: 8 km
cloud details: partly cloudy m
EBLG 250550Z 13005G16KT 110V200 8000 NSC 11/06 Q1020 NOSIG
EBCV - Mons/Bergen
updated: 25-09-2017 07:43
mist, clear  
mist, clear  
   wind: ene 5.6 km/h
wind: ene 5.6 km/h
temperature: 8°C
wind chill: 7°C
dew point: 7°C
humidity: 93%
barometer: 1020 hPa
clouds: Clear
visibility: 1 km
cloud details: clear m
EBCV 250543Z AUTO 07003KT 0700 BR NCD 08/07 Q1020 RED
EHBK - Maastricht
updated: 25-09-2017 07:25
mist, partly cloudy  
mist, partly cloudy  
   wind: se 3.7 km/h
wind: se 3.7 km/h
temperature: 9°C
dew point: 9°C
humidity: 100%
barometer: 1020 hPa
clouds: Partly Cloudy
visibility: 3 km
cloud details: partly cloudy m
EHBK 250525Z AUTO 13002KT 2600 BR NSC 09/09 Q1020 NOSIG
ELLX - Luxemburg
updated: 25-09-2017 07:50
partly cloudy  
partly cloudy  
   wind: ne 13 km/h
wind: ne 13 km/h
temperature: 10°C
wind chill: 8°C
dew point: 9°C
humidity: 94%
barometer: 1020 hPa
clouds: Partly Cloudy
visibility: 6 km
cloud details: partly cloudy m
ELLX 250550Z 05007KT 6000 NSC 10/09 Q1020 TEMPO 3000
EBOS - Oostende
updated: 25-09-2017 07:50
mist, partly cloudy  
mist, partly cloudy  
   wind: east 13 km/h
wind: east 13 km/h
temperature: 10°C
wind chill: 8°C
dew point: 9°C
humidity: 94%
barometer: 1020 hPa
clouds: Partly Cloudy
visibility: 1 km
cloud details: partly cloudy m
EBOS 250550Z 09007KT 1300 R08/1800D R26/P2000N BR NSC 10/09 Q1020 BECMG 2500 BR

script developed by  Saratoga-weather.org adapted for the template by  Weerstation Leuven

you find our weather info also at:

Het Weer Aktueel

UK Metoffice

European Weather Network

WeatherCloud

Weather Underground

benelux weather network

AWEKAS

WeatherlinkIP

Citizen Weather Observer Program (CWOP)

HAMweather, WeatherForYou, PWS Weather

equipment we use:

weather-station
Davis VP2+
Meteostick connected

weather-program
Meteobridge

weather-server
MeteobridgePro

Davis VP2+<br />Meteostick connected

Meteobridge

MeteobridgePro